sensor_id;sensor_type;location;lat;lon;timestamp;pressure;altitude;pressure_sealevel;temperature;humidity
59190;BME280;50749;51.636;4.948;2023-04-03T00:01:38;103032.59;;;17.52;52.48
59190;BME280;50749;51.636;4.948;2023-04-03T00:04:06;103039.22;;;17.51;52.51
59190;BME280;50749;51.636;4.948;2023-04-03T00:06:32;103039.53;;;17.49;52.83
59190;BME280;50749;51.636;4.948;2023-04-03T00:08:59;103052.53;;;17.49;52.63
59190;BME280;50749;51.636;4.948;2023-04-03T00:11:25;103047.00;;;17.49;52.71
59190;BME280;50749;51.636;4.948;2023-04-03T00:13:53;103053.66;;;17.48;52.36
59190;BME280;50749;51.636;4.948;2023-04-03T00:16:19;103050.88;;;17.48;52.95
59190;BME280;50749;51.636;4.948;2023-04-03T00:18:45;103053.13;;;17.45;52.91
59190;BME280;50749;51.636;4.948;2023-04-03T00:21:12;103050.38;;;17.45;52.61
59190;BME280;50749;51.636;4.948;2023-04-03T00:23:38;103059.78;;;17.44;52.85
59190;BME280;50749;51.636;4.948;2023-04-03T00:26:04;103058.97;;;17.44;52.59
59190;BME280;50749;51.636;4.948;2023-04-03T00:28:30;103055.38;;;17.43;52.33
59190;BME280;50749;51.636;4.948;2023-04-03T00:30:56;103060.91;;;17.43;52.43
59190;BME280;50749;51.636;4.948;2023-04-03T00:33:21;103058.47;;;17.42;51.85
59190;BME280;50749;51.636;4.948;2023-04-03T00:35:48;103053.75;;;17.42;52.46
59190;BME280;50749;51.636;4.948;2023-04-03T00:38:15;103066.75;;;17.42;52.42
59190;BME280;50749;51.636;4.948;2023-04-03T00:40:43;103070.63;;;17.41;52.30
59190;BME280;50749;51.636;4.948;2023-04-03T00:43:28;103066.22;;;17.40;52.62
59190;BME280;50749;51.636;4.948;2023-04-03T00:45:56;103065.41;;;17.39;53.00
59190;BME280;50749;51.636;4.948;2023-04-03T00:48:27;103061.00;;;17.38;52.45
59190;BME280;50749;51.636;4.948;2023-04-03T00:50:55;103062.94;;;17.38;52.33
59190;BME280;50749;51.636;4.948;2023-04-03T00:53:31;103074.84;;;17.38;52.29
59190;BME280;50749;51.636;4.948;2023-04-03T00:55:58;103074.00;;;17.38;52.77
59190;BME280;50749;51.636;4.948;2023-04-03T00:58:37;103074.28;;;17.36;52.86
59190;BME280;50749;51.636;4.948;2023-04-03T01:01:08;103070.72;;;17.36;52.47
59190;BME280;50749;51.636;4.948;2023-04-03T01:03:37;103074.59;;;17.35;52.84
59190;BME280;50749;51.636;4.948;2023-04-03T01:06:04;103068.25;;;17.34;52.36
59190;BME280;50749;51.636;4.948;2023-04-03T01:08:30;103076.84;;;17.33;52.52
59190;BME280;50749;51.636;4.948;2023-04-03T01:10:56;103073.25;;;17.32;52.60
59190;BME280;50749;51.636;4.948;2023-04-03T01:13:25;103076.03;;;17.32;52.36
59190;BME280;50749;51.636;4.948;2023-04-03T01:15:52;103072.44;;;17.32;52.38
59190;BME280;50749;51.636;4.948;2023-04-03T01:18:18;103063.31;;;17.31;52.79
59190;BME280;50749;51.636;4.948;2023-04-03T01:23:43;103070.78;;;17.31;52.73
59190;BME280;50749;51.636;4.948;2023-04-03T01:26:15;103079.38;;;17.29;52.39
59190;BME280;50749;51.636;4.948;2023-04-03T01:28:41;103074.97;;;17.28;52.81
59190;BME280;50749;51.636;4.948;2023-04-03T01:33:38;103069.75;;;17.26;52.30
59190;BME280;50749;51.636;4.948;2023-04-03T01:36:05;103070.88;;;17.25;52.25
59190;BME280;50749;51.636;4.948;2023-04-03T01:38:31;103071.69;;;17.26;52.33
59190;BME280;50749;51.636;4.948;2023-04-03T01:40:57;103078.34;;;17.25;52.39
59190;BME280;50749;51.636;4.948;2023-04-03T01:43:23;103086.63;;;17.25;52.55
59190;BME280;50749;51.636;4.948;2023-04-03T01:45:49;103079.47;;;17.24;52.62
59190;BME280;50749;51.636;4.948;2023-04-03T01:48:16;103087.75;;;17.24;52.36
59190;BME280;50749;51.636;4.948;2023-04-03T01:50:42;103080.56;;;17.23;52.46
59190;BME280;50749;51.636;4.948;2023-04-03T01:53:08;103084.47;;;17.22;52.13
59190;BME280;50749;51.636;4.948;2023-04-03T01:55:34;103086.38;;;17.21;52.12
59190;BME280;50749;51.636;4.948;2023-04-03T01:58:00;103080.03;;;17.21;52.57
59190;BME280;50749;51.636;4.948;2023-04-03T02:00:26;103080.88;;;17.21;52.46
59190;BME280;50749;51.636;4.948;2023-04-03T02:02:52;103083.94;;;17.20;52.62
59190;BME280;50749;51.636;4.948;2023-04-03T02:05:19;103083.94;;;17.20;52.50
59190;BME280;50749;51.636;4.948;2023-04-03T02:07:44;103079.53;;;17.19;52.39
59190;BME280;50749;51.636;4.948;2023-04-03T02:10:11;103088.63;;;17.19;51.74
59190;BME280;50749;51.636;4.948;2023-04-03T02:12:37;103075.13;;;17.18;52.29
59190;BME280;50749;51.636;4.948;2023-04-03T02:15:03;103084.53;;;17.17;52.63
59190;BME280;50749;51.636;4.948;2023-04-03T02:17:29;103086.47;;;17.16;52.09
59190;BME280;50749;51.636;4.948;2023-04-03T02:19:55;103088.41;;;17.16;52.48
59190;BME280;50749;51.636;4.948;2023-04-03T02:22:21;103086.78;;;17.15;51.99
59190;BME280;50749;51.636;4.948;2023-04-03T02:24:47;103087.91;;;17.14;52.33
59190;BME280;50749;51.636;4.948;2023-04-03T02:27:13;103098.97;;;17.14;52.21
59190;BME280;50749;51.636;4.948;2023-04-03T02:29:39;103094.53;;;17.13;52.41
59190;BME280;50749;51.636;4.948;2023-04-03T02:32:05;103100.91;;;17.13;52.40
59190;BME280;50749;51.636;4.948;2023-04-03T02:34:31;103100.91;;;17.13;51.86
59190;BME280;50749;51.636;4.948;2023-04-03T02:36:57;103097.59;;;17.11;52.47
59190;BME280;50749;51.636;4.948;2023-04-03T02:39:23;103099.53;;;17.11;52.44
59190;BME280;50749;51.636;4.948;2023-04-03T02:41:48;103104.25;;;17.10;52.30
59190;BME280;50749;51.636;4.948;2023-04-03T02:44:14;103107.03;;;17.10;52.00
59190;BME280;50749;51.636;4.948;2023-04-03T02:46:40;103107.03;;;17.10;51.96
59190;BME280;50749;51.636;4.948;2023-04-03T02:49:06;103102.59;;;17.09;52.30
59190;BME280;50749;51.636;4.948;2023-04-03T02:51:32;103110.09;;;17.08;51.98
59190;BME280;50749;51.636;4.948;2023-04-03T02:53:58;103102.09;;;17.07;51.93
59190;BME280;50749;51.636;4.948;2023-04-03T02:56:24;103095.75;;;17.06;51.62
59190;BME280;50749;51.636;4.948;2023-04-03T02:58:50;103106.81;;;17.06;51.99
59190;BME280;50749;51.636;4.948;2023-04-03T03:01:16;103105.97;;;17.06;51.89
59190;BME280;50749;51.636;4.948;2023-04-03T03:03:41;103093.28;;;17.05;51.97
59190;BME280;50749;51.636;4.948;2023-04-03T03:06:10;103102.69;;;17.04;51.79
59190;BME280;50749;51.636;4.948;2023-04-03T03:08:36;103096.34;;;17.03;52.00
59190;BME280;50749;51.636;4.948;2023-04-03T03:11:03;103096.34;;;17.03;51.94
59190;BME280;50749;51.636;4.948;2023-04-03T03:13:30;103092.72;;;17.03;52.11
59190;BME280;50749;51.636;4.948;2023-04-03T03:15:56;103099.91;;;17.04;52.06
59190;BME280;50749;51.636;4.948;2023-04-03T03:18:22;103100.44;;;17.06;52.08
59190;BME280;50749;51.636;4.948;2023-04-03T03:20:55;103111.72;;;17.09;52.15
59190;BME280;50749;51.636;4.948;2023-04-03T03:23:23;103106.13;;;17.15;51.86
59190;BME280;50749;51.636;4.948;2023-04-03T03:25:57;103102.16;;;17.21;51.25
59190;BME280;50749;51.636;4.948;2023-04-03T03:28:24;103100.97;;;17.27;51.55
59190;BME280;50749;51.636;4.948;2023-04-03T03:30:50;103104.47;;;17.33;51.35
59190;BME280;50749;51.636;4.948;2023-04-03T03:33:17;103108.53;;;17.40;51.11
59190;BME280;50749;51.636;4.948;2023-04-03T03:35:43;103116.44;;;17.47;50.78
59190;BME280;50749;51.636;4.948;2023-04-03T03:38:09;103114.41;;;17.53;50.92
59190;BME280;50749;51.636;4.948;2023-04-03T03:40:34;103115.47;;;17.57;51.25
59190;BME280;50749;51.636;4.948;2023-04-03T03:43:00;103118.16;;;17.62;50.84
59190;BME280;50749;51.636;4.948;2023-04-03T03:45:26;103125.53;;;17.67;50.74
59190;BME280;50749;51.636;4.948;2023-04-03T03:47:53;103123.00;;;17.70;50.85
59190;BME280;50749;51.636;4.948;2023-04-03T03:50:18;103135.41;;;17.73;50.94
59190;BME280;50749;51.636;4.948;2023-04-03T03:52:44;103131.22;;;17.75;50.72
59190;BME280;50749;51.636;4.948;2023-04-03T03:55:10;103123.94;;;17.79;51.50
59190;BME280;50749;51.636;4.948;2023-04-03T03:57:36;103135.22;;;17.83;51.56
59190;BME280;50749;51.636;4.948;2023-04-03T04:00:03;103124.41;;;17.87;51.52
59190;BME280;50749;51.636;4.948;2023-04-03T04:02:30;103131.81;;;17.91;51.85
59190;BME280;50749;51.636;4.948;2023-04-03T04:04:56;103130.91;;;17.96;51.67
59190;BME280;50749;51.636;4.948;2023-04-03T04:07:22;103127.53;;;17.99;52.22
59190;BME280;50749;51.636;4.948;2023-04-03T04:09:48;103132.44;;;18.02;51.98
59190;BME280;50749;51.636;4.948;2023-04-03T04:12:14;103125.19;;;18.06;51.80
59190;BME280;50749;51.636;4.948;2023-04-03T04:14:40;103136.78;;;18.08;52.13
59190;BME280;50749;51.636;4.948;2023-04-03T04:17:06;103133.41;;;18.11;52.06
59190;BME280;50749;51.636;4.948;2023-04-03T04:19:31;103135.06;;;18.12;52.08
59190;BME280;50749;51.636;4.948;2023-04-03T04:21:58;103135.25;;;18.16;52.00
59190;BME280;50749;51.636;4.948;2023-04-03T04:24:24;103133.81;;;18.18;52.26
59190;BME280;50749;51.636;4.948;2023-04-03T04:26:50;103132.72;;;18.19;52.45
59190;BME280;50749;51.636;4.948;2023-04-03T04:29:16;103134.97;;;18.17;52.90
59190;BME280;50749;51.636;4.948;2023-04-03T04:31:42;103134.97;;;18.17;51.90
59190;BME280;50749;51.636;4.948;2023-04-03T04:34:07;103141.31;;;18.18;52.15
59190;BME280;50749;51.636;4.948;2023-04-03T04:36:34;103137.44;;;18.19;51.08
59190;BME280;50749;51.636;4.948;2023-04-03T04:38:59;103138.53;;;18.18;51.72
59190;BME280;50749;51.636;4.948;2023-04-03T04:41:25;103134.97;;;18.17;51.74
59190;BME280;50749;51.636;4.948;2023-04-03T04:43:52;103128.59;;;18.17;51.95
59190;BME280;50749;51.636;4.948;2023-04-03T04:46:18;103140.50;;;18.17;51.97
59190;BME280;50749;51.636;4.948;2023-04-03T04:48:44;103134.97;;;18.17;51.93
59190;BME280;50749;51.636;4.948;2023-04-03T04:51:10;103142.72;;;18.15;49.84
59190;BME280;50749;51.636;4.948;2023-04-03T04:53:37;103155.25;;;18.13;49.56
59190;BME280;50749;51.636;4.948;2023-04-03T04:56:03;103146.94;;;18.13;49.89
59190;BME280;50749;51.636;4.948;2023-04-03T04:58:29;103148.06;;;18.12;50.46
59190;BME280;50749;51.636;4.948;2023-04-03T05:01:00;103156.06;;;18.13;51.81
59190;BME280;50749;51.636;4.948;2023-04-03T05:03:26;103152.19;;;18.14;51.56
59190;BME280;50749;51.636;4.948;2023-04-03T05:05:53;103151.03;;;18.15;52.20
59190;BME280;50749;51.636;4.948;2023-04-03T05:08:20;103156.56;;;18.15;50.97
59190;BME280;50749;51.636;4.948;2023-04-03T05:10:47;103155.47;;;18.16;51.78
59190;BME280;50749;51.636;4.948;2023-04-03T05:13:13;103158.22;;;18.16;50.75
59190;BME280;50749;51.636;4.948;2023-04-03T05:15:39;103164.88;;;18.15;50.66
59190;BME280;50749;51.636;4.948;2023-04-03T05:18:05;103164.88;;;18.15;51.07
59190;BME280;50749;51.636;4.948;2023-04-03T05:20:32;103168.19;;;18.17;51.85
59190;BME280;50749;51.636;4.948;2023-04-03T05:22:58;103161.00;;;18.16;50.85
59190;BME280;50749;51.636;4.948;2023-04-03T05:25:26;103158.22;;;18.16;51.22
59190;BME280;50749;51.636;4.948;2023-04-03T05:27:52;103167.34;;;18.17;51.28
59190;BME280;50749;51.636;4.948;2023-04-03T05:30:19;103164.28;;;18.18;51.58
59190;BME280;50749;51.636;4.948;2023-04-03T05:32:45;103166.22;;;18.18;51.63
59190;BME280;50749;51.636;4.948;2023-04-03T05:35:11;103168.19;;;18.17;51.06
59190;BME280;50749;51.636;4.948;2023-04-03T05:37:37;103168.19;;;18.17;51.23
59190;BME280;50749;51.636;4.948;2023-04-03T05:40:04;103172.56;;;18.18;51.13
59190;BME280;50749;51.636;4.948;2023-04-03T05:42:31;103169.00;;;18.18;51.29
59190;BME280;50749;51.636;4.948;2023-04-03T05:44:58;103175.34;;;18.18;51.24
59190;BME280;50749;51.636;4.948;2023-04-03T05:47:23;103175.03;;;18.20;51.61
59190;BME280;50749;51.636;4.948;2023-04-03T05:49:49;103181.41;;;18.20;51.64
59190;BME280;50749;51.636;4.948;2023-04-03T05:52:33;103179.47;;;18.21;51.29
59190;BME280;50749;51.636;4.948;2023-04-03T05:55:01;103187.25;;;18.19;50.91
59190;BME280;50749;51.636;4.948;2023-04-03T05:57:29;103192.81;;;18.19;50.76
59190;BME280;50749;51.636;4.948;2023-04-03T05:59:55;103195.88;;;18.17;50.83
59190;BME280;50749;51.636;4.948;2023-04-03T06:02:22;103193.09;;;18.17;50.62
59190;BME280;50749;51.636;4.948;2023-04-03T06:04:50;103192.25;;;18.17;50.81
59190;BME280;50749;51.636;4.948;2023-04-03T06:07:18;103194.22;;;18.16;51.03
59190;BME280;50749;51.636;4.948;2023-04-03T06:09:47;103192.25;;;18.17;51.10
59190;BME280;50749;51.636;4.948;2023-04-03T06:12:13;103189.50;;;18.17;50.78
59190;BME280;50749;51.636;4.948;2023-04-03T06:14:39;103200.56;;;18.17;50.50
59190;BME280;50749;51.636;4.948;2023-04-03T06:17:06;103194.22;;;18.16;51.23
59190;BME280;50749;51.636;4.948;2023-04-03T06:19:36;103188.69;;;18.16;50.85
59190;BME280;50749;51.636;4.948;2023-04-03T06:22:02;103194.22;;;18.16;50.46
59190;BME280;50749;51.636;4.948;2023-04-03T06:24:28;103199.75;;;18.16;50.54
59190;BME280;50749;51.636;4.948;2023-04-03T06:26:58;103199.75;;;18.16;50.83
59190;BME280;50749;51.636;4.948;2023-04-03T06:29:24;103207.53;;;18.14;50.45
59190;BME280;50749;51.636;4.948;2023-04-03T06:31:50;103205.59;;;18.15;50.47
59190;BME280;50749;51.636;4.948;2023-04-03T06:34:17;103215.56;;;18.16;50.57
59190;BME280;50749;51.636;4.948;2023-04-03T06:36:44;103203.63;;;18.15;51.77
59190;BME280;50749;51.636;4.948;2023-04-03T06:39:14;103210.31;;;18.14;50.66
59190;BME280;50749;51.636;4.948;2023-04-03T06:41:40;103212.47;;;18.17;50.44
59190;BME280;50749;51.636;4.948;2023-04-03T06:44:06;103211.34;;;18.18;51.81
59190;BME280;50749;51.636;4.948;2023-04-03T06:46:33;103215.75;;;18.19;52.24
59190;BME280;50749;51.636;4.948;2023-04-03T06:48:59;103223.16;;;18.24;52.47
59190;BME280;50749;51.636;4.948;2023-04-03T06:51:26;103230.53;;;18.29;52.05
59190;BME280;50749;51.636;4.948;2023-04-03T06:53:55;103218.88;;;18.32;51.10
59190;BME280;50749;51.636;4.948;2023-04-03T06:56:22;103221.53;;;18.37;51.15
59190;BME280;50749;51.636;4.948;2023-04-03T06:58:48;103223.72;;;18.40;51.40
59190;BME280;50749;51.636;4.948;2023-04-03T07:01:16;103224.22;;;18.42;51.42
59190;BME280;50749;51.636;4.948;2023-04-03T07:03:43;103224.44;;;18.46;51.00
59190;BME280;50749;51.636;4.948;2023-04-03T07:06:12;103224.44;;;18.46;51.21
59190;BME280;50749;51.636;4.948;2023-04-03T07:08:40;103231.84;;;18.50;50.99
59190;BME280;50749;51.636;4.948;2023-04-03T07:11:06;103232.34;;;18.52;50.87
59190;BME280;50749;51.636;4.948;2023-04-03T07:13:32;103227.34;;;18.54;50.87
59190;BME280;50749;51.636;4.948;2023-04-03T07:15:59;103230.63;;;18.56;50.46
59190;BME280;50749;51.636;4.948;2023-04-03T07:18:26;103229.19;;;18.59;50.43
59190;BME280;50749;51.636;4.948;2023-04-03T07:20:52;103226.09;;;18.61;50.63
59190;BME280;50749;51.636;4.948;2023-04-03T07:23:19;103236.59;;;18.64;50.82
59190;BME280;50749;51.636;4.948;2023-04-03T07:25:46;103232.69;;;18.65;50.74
59190;BME280;50749;51.636;4.948;2023-04-03T07:28:13;103228.78;;;18.66;50.44
59190;BME280;50749;51.636;4.948;2023-04-03T07:30:50;103241.22;;;18.68;50.11
59190;BME280;50749;51.636;4.948;2023-04-03T07:33:20;103240.91;;;18.70;50.39
59190;BME280;50749;51.636;4.948;2023-04-03T07:35:46;103242.53;;;18.71;50.52
59190;BME280;50749;51.636;4.948;2023-04-03T07:38:12;103241.41;;;18.72;50.34
59190;BME280;50749;51.636;4.948;2023-04-03T07:40:38;103234.13;;;18.76;50.23
59190;BME280;50749;51.636;4.948;2023-04-03T07:43:07;103235.78;;;18.77;49.76
59190;BME280;50749;51.636;4.948;2023-04-03T07:45:35;103240.72;;;18.80;50.08
59190;BME280;50749;51.636;4.948;2023-04-03T07:48:01;103239.59;;;18.81;49.64
59190;BME280;50749;51.636;4.948;2023-04-03T07:50:27;103242.06;;;18.83;49.89
59190;BME280;50749;51.636;4.948;2023-04-03T07:52:53;103235.91;;;18.86;49.66
59190;BME280;50749;51.636;4.948;2023-04-03T07:55:21;103243.13;;;18.87;49.33
59190;BME280;50749;51.636;4.948;2023-04-03T07:57:48;103245.28;;;18.90;48.99
59190;BME280;50749;51.636;4.948;2023-04-03T08:00:14;103250.53;;;18.91;49.12
59190;BME280;50749;51.636;4.948;2023-04-03T08:02:41;103251.03;;;18.93;48.92
59190;BME280;50749;51.636;4.948;2023-04-03T08:05:07;103254.31;;;18.96;48.63
59190;BME280;50749;51.636;4.948;2023-04-03T08:07:33;103253.69;;;18.99;49.12
59190;BME280;50749;51.636;4.948;2023-04-03T08:09:59;103250.63;;;19.00;48.98
59190;BME280;50749;51.636;4.948;2023-04-03T08:12:25;103250.31;;;19.02;48.64
59190;BME280;50749;51.636;4.948;2023-04-03T08:14:50;103256.38;;;19.04;48.55
59190;BME280;50749;51.636;4.948;2023-04-03T08:17:16;103254.94;;;19.06;48.50
59190;BME280;50749;51.636;4.948;2023-04-03T08:19:42;103259.34;;;19.07;48.44
59190;BME280;50749;51.636;4.948;2023-04-03T08:22:08;103261.81;;;19.09;48.34
59190;BME280;50749;51.636;4.948;2023-04-03T08:24:35;103265.94;;;19.11;48.36
59190;BME280;50749;51.636;4.948;2023-04-03T08:27:02;103263.97;;;19.12;48.54
59190;BME280;50749;51.636;4.948;2023-04-03T08:29:27;103270.03;;;19.14;48.51
59190;BME280;50749;51.636;4.948;2023-04-03T08:31:55;103266.13;;;19.15;48.08
59190;BME280;50749;51.636;4.948;2023-04-03T08:34:20;103270.22;;;19.18;48.52
59190;BME280;50749;51.636;4.948;2023-04-03T08:36:47;103258.03;;;19.19;48.23
59190;BME280;50749;51.636;4.948;2023-04-03T08:39:12;103269.31;;;19.22;48.40
59190;BME280;50749;51.636;4.948;2023-04-03T08:41:42;103270.97;;;19.23;48.41
59190;BME280;50749;51.636;4.948;2023-04-03T08:50:07;103281.66;;;19.30;47.81
59190;BME280;50749;51.636;4.948;2023-04-03T08:52:41;103281.31;;;19.31;47.92
59190;BME280;50749;51.636;4.948;2023-04-03T08:58:06;103284.63;;;19.34;47.82
59190;BME280;50749;51.636;4.948;2023-04-03T09:00:43;103277.94;;;19.35;47.50
59190;BME280;50749;51.636;4.948;2023-04-03T09:03:16;103278.47;;;19.37;47.87
59190;BME280;50749;51.636;4.948;2023-04-03T09:06:14;103280.09;;;19.38;47.47
59190;BME280;50749;51.636;4.948;2023-04-03T09:09:05;103275.88;;;19.40;47.48
59190;BME280;50749;51.636;4.948;2023-04-03T09:11:54;103269.50;;;19.40;47.57
59190;BME280;50749;51.636;4.948;2023-04-03T09:14:33;103266.09;;;19.43;47.06
59190;BME280;50749;51.636;4.948;2023-04-03T09:17:13;103266.09;;;19.43;47.68
59190;BME280;50749;51.636;4.948;2023-04-03T09:19:50;103263.03;;;19.44;47.11
59190;BME280;50749;51.636;4.948;2023-04-03T09:22:28;103261.59;;;19.47;47.45
59190;BME280;50749;51.636;4.948;2023-04-03T09:25:32;103269.28;;;19.50;47.00
59190;BME280;50749;51.636;4.948;2023-04-03T09:28:01;103265.69;;;19.49;47.15
59190;BME280;50749;51.636;4.948;2023-04-03T09:30:29;103264.56;;;19.51;46.69
59190;BME280;50749;51.636;4.948;2023-04-03T09:32:56;103257.38;;;19.49;46.17
59190;BME280;50749;51.636;4.948;2023-04-03T09:35:28;103254.78;;;19.53;46.45
59190;BME280;50749;51.636;4.948;2023-04-03T09:38:16;103254.16;;;19.56;46.04
59190;BME280;50749;51.636;4.948;2023-04-03T09:40:44;103251.69;;;19.55;45.38
59190;BME280;50749;51.636;4.948;2023-04-03T09:45:47;103253.34;;;19.56;45.42
59190;BME280;50749;51.636;4.948;2023-04-03T09:53:40;103244.22;;;19.55;44.89
59190;BME280;50749;51.636;4.948;2023-04-03T09:58:46;103239.19;;;19.57;44.10
59190;BME280;50749;51.636;4.948;2023-04-03T10:01:30;103241.94;;;19.57;44.37
59190;BME280;50749;51.636;4.948;2023-04-03T10:04:17;103235.56;;;19.57;44.05
59190;BME280;50749;51.636;4.948;2023-04-03T10:06:46;103234.75;;;19.56;44.38
59190;BME280;50749;51.636;4.948;2023-04-03T10:12:07;103240.28;;;19.56;44.42
59190;BME280;50749;51.636;4.948;2023-04-03T10:14:56;103231.16;;;19.56;43.94
59190;BME280;50749;51.636;4.948;2023-04-03T10:23:02;103220.38;;;19.54;43.97
59190;BME280;50749;51.636;4.948;2023-04-03T10:28:51;103225.13;;;19.54;43.22
59190;BME280;50749;51.636;4.948;2023-04-03T10:31:44;103221.50;;;19.53;43.21
59190;BME280;50749;51.636;4.948;2023-04-03T10:34:21;103221.81;;;19.52;43.19
59190;BME280;50749;51.636;4.948;2023-04-03T10:37:01;103211.00;;;19.50;43.07
59190;BME280;50749;51.636;4.948;2023-04-03T10:39:48;103217.72;;;19.49;43.15
59190;BME280;50749;51.636;4.948;2023-04-03T10:45:03;103204.47;;;19.46;43.30
59190;BME280;50749;51.636;4.948;2023-04-03T10:50:52;103203.97;;;19.44;43.76
59190;BME280;50749;51.636;4.948;2023-04-03T10:55:54;103187.94;;;19.41;43.53
59190;BME280;50749;51.636;4.948;2023-04-03T10:58:30;103202.13;;;19.39;43.65
59190;BME280;50749;51.636;4.948;2023-04-03T11:01:05;103195.75;;;19.39;43.16
59190;BME280;50749;51.636;4.948;2023-04-03T11:03:36;103191.31;;;19.38;42.80
59190;BME280;50749;51.636;4.948;2023-04-03T11:06:07;103192.13;;;19.38;43.29
59190;BME280;50749;51.636;4.948;2023-04-03T11:08:42;103184.16;;;19.37;42.55
59190;BME280;50749;51.636;4.948;2023-04-03T11:11:24;103180.03;;;19.34;42.19
59190;BME280;50749;51.636;4.948;2023-04-03T11:14:02;103176.25;;;19.30;43.18
59190;BME280;50749;51.636;4.948;2023-04-03T11:16:32;103179.84;;;19.30;42.54
59190;BME280;50749;51.636;4.948;2023-04-03T11:19:05;103173.78;;;19.28;42.43
59190;BME280;50749;51.636;4.948;2023-04-03T11:21:47;103178.31;;;19.24;42.41
59190;BME280;50749;51.636;4.948;2023-04-03T11:24:25;103175.03;;;19.22;42.24
59190;BME280;50749;51.636;4.948;2023-04-03T11:26:53;103186.13;;;19.22;42.26
59190;BME280;50749;51.636;4.948;2023-04-03T11:29:25;103167.81;;;19.21;42.12
59190;BME280;50749;51.636;4.948;2023-04-03T11:37:14;103157.69;;;19.17;42.03
59190;BME280;50749;51.636;4.948;2023-04-03T11:39:49;103164.66;;;19.14;41.69
59190;BME280;50749;51.636;4.948;2023-04-03T11:44:45;103149.78;;;19.10;41.81
59190;BME280;50749;51.636;4.948;2023-04-03T11:47:45;103153.69;;;19.09;42.47
59190;BME280;50749;51.636;4.948;2023-04-03T11:53:39;103144.38;;;19.05;41.99
59190;BME280;50749;51.636;4.948;2023-04-03T12:01:50;103130.28;;;19.01;41.29
59190;BME280;50749;51.636;4.948;2023-04-03T12:04:18;103133.38;;;19.00;41.69
59190;BME280;50749;51.636;4.948;2023-04-03T12:11:49;103119.59;;;18.94;41.12
59190;BME280;50749;51.636;4.948;2023-04-03T12:14:17;103131.84;;;18.93;41.46
59190;BME280;50749;51.636;4.948;2023-04-03T12:16:45;103121.06;;;18.92;40.81
59190;BME280;50749;51.636;4.948;2023-04-03T12:29:27;103108.22;;;18.82;40.22
59190;BME280;50749;51.636;4.948;2023-04-03T12:34:55;103102.78;;;18.77;40.94
59190;BME280;50749;51.636;4.948;2023-04-03T12:40:53;103100.94;;;18.72;40.06
59190;BME280;50749;51.636;4.948;2023-04-03T12:48:58;103095.81;;;18.66;37.93
59190;BME280;50749;51.636;4.948;2023-04-03T12:51:44;103095.28;;;18.64;38.73
59190;BME280;50749;51.636;4.948;2023-04-03T12:54:30;103087.59;;;18.61;39.67
59190;BME280;50749;51.636;4.948;2023-04-03T12:59:43;103084.31;;;18.59;40.10
59190;BME280;50749;51.636;4.948;2023-04-03T13:02:32;103084.63;;;18.57;41.42
59190;BME280;50749;51.636;4.948;2023-04-03T13:05:07;103075.81;;;18.55;41.18
59190;BME280;50749;51.636;4.948;2023-04-03T13:07:36;103080.84;;;18.53;41.10
59190;BME280;50749;51.636;4.948;2023-04-03T13:10:15;103070.88;;;18.52;41.23
59190;BME280;50749;51.636;4.948;2023-04-03T13:12:47;103074.25;;;18.49;40.56
59190;BME280;50749;51.636;4.948;2023-04-03T13:15:40;103078.19;;;18.48;39.67
59190;BME280;50749;51.636;4.948;2023-04-03T13:18:31;103062.16;;;18.45;38.95
59190;BME280;50749;51.636;4.948;2023-04-03T13:21:11;103068.81;;;18.44;39.31
59190;BME280;50749;51.636;4.948;2023-04-03T13:23:44;103062.78;;;18.42;39.15
59190;BME280;50749;51.636;4.948;2023-04-03T13:26:16;103056.75;;;18.40;39.71
59190;BME280;50749;51.636;4.948;2023-04-03T13:28:44;103061.44;;;18.39;39.10
59190;BME280;50749;51.636;4.948;2023-04-03T13:36:23;103057.66;;;18.35;38.96
59190;BME280;50749;51.636;4.948;2023-04-03T13:39:07;103054.38;;;18.33;39.65
59190;BME280;50749;51.636;4.948;2023-04-03T13:41:49;103058.25;;;18.32;39.83
59190;BME280;50749;51.636;4.948;2023-04-03T13:44:23;103051.91;;;18.31;39.31
59190;BME280;50749;51.636;4.948;2023-04-03T13:46:53;103058.56;;;18.30;39.81
59190;BME280;50749;51.636;4.948;2023-04-03T13:51:48;103052.00;;;18.26;39.41
59190;BME280;50749;51.636;4.948;2023-04-03T13:54:31;103061.44;;;18.25;39.08
59190;BME280;50749;51.636;4.948;2023-04-03T13:56:58;103055.38;;;18.23;38.21
59190;BME280;50749;51.636;4.948;2023-04-03T13:59:33;103051.28;;;18.20;38.35
59190;BME280;50749;51.636;4.948;2023-04-03T14:04:30;103048.31;;;18.17;38.37
59190;BME280;50749;51.636;4.948;2023-04-03T14:06:56;103045.53;;;18.17;37.96
59190;BME280;50749;51.636;4.948;2023-04-03T14:09:24;103039.50;;;18.15;38.91
59190;BME280;50749;51.636;4.948;2023-04-03T14:11:54;103046.16;;;18.14;37.86
59190;BME280;50749;51.636;4.948;2023-04-03T14:14:26;103034.56;;;18.12;38.47
59190;BME280;50749;51.636;4.948;2023-04-03T14:16:54;103030.97;;;18.11;37.64
59190;BME280;50749;51.636;4.948;2023-04-03T14:19:31;103033.75;;;18.11;38.37
59190;BME280;50749;51.636;4.948;2023-04-03T14:21:58;103039.59;;;18.10;38.35
59190;BME280;50749;51.636;4.948;2023-04-03T14:24:25;103034.56;;;18.12;38.70
59190;BME280;50749;51.636;4.948;2023-04-03T14:26:52;103037.63;;;18.10;38.27
59190;BME280;50749;51.636;4.948;2023-04-03T14:29:20;103022.97;;;18.10;38.48
59190;BME280;50749;51.636;4.948;2023-04-03T14:31:46;103020.22;;;18.10;38.01
59190;BME280;50749;51.636;4.948;2023-04-03T14:34:14;103017.44;;;18.10;38.16
59190;BME280;50749;51.636;4.948;2023-04-03T14:36:41;103023.50;;;18.12;39.20
59190;BME280;50749;51.636;4.948;2023-04-03T14:39:16;103028.72;;;18.13;39.06
59190;BME280;50749;51.636;4.948;2023-04-03T14:41:43;103026.47;;;18.15;39.15
59190;BME280;50749;51.636;4.948;2023-04-03T14:44:10;103011.19;;;18.18;39.89